sensor_id;sensor_type;location;lat;lon;timestamp;P1;durP1;ratioP1;P2;durP2;ratioP2
52858;SDS011;38721;53.098;6.596;2022-11-23T00:00:29;32.90;;;20.20;;
52858;SDS011;38721;53.098;6.596;2022-11-23T00:02:58;29.02;;;18.85;;
52858;SDS011;38721;53.098;6.596;2022-11-23T00:05:25;29.60;;;18.33;;
52858;SDS011;38721;53.098;6.596;2022-11-23T00:07:52;29.25;;;17.67;;
52858;SDS011;38721;53.098;6.596;2022-11-23T00:10:18;31.10;;;18.48;;
52858;SDS011;38721;53.098;6.596;2022-11-23T00:12:47;25.45;;;16.95;;
52858;SDS011;38721;53.098;6.596;2022-11-23T00:15:13;28.42;;;18.33;;
52858;SDS011;38721;53.098;6.596;2022-11-23T00:17:48;24.30;;;16.60;;
52858;SDS011;38721;53.098;6.596;2022-11-23T00:20:14;26.48;;;17.42;;
52858;SDS011;38721;53.098;6.596;2022-11-23T00:22:39;27.38;;;17.40;;
52858;SDS011;38721;53.098;6.596;2022-11-23T00:25:05;28.85;;;17.30;;
52858;SDS011;38721;53.098;6.596;2022-11-23T00:27:31;26.90;;;15.80;;
52858;SDS011;38721;53.098;6.596;2022-11-23T00:30:00;29.17;;;16.30;;
52858;SDS011;38721;53.098;6.596;2022-11-23T00:32:27;25.00;;;16.55;;
52858;SDS011;38721;53.098;6.596;2022-11-23T00:34:54;28.15;;;16.83;;
52858;SDS011;38721;53.098;6.596;2022-11-23T00:37:19;25.50;;;16.40;;
52858;SDS011;38721;53.098;6.596;2022-11-23T00:39:45;26.92;;;15.65;;
52858;SDS011;38721;53.098;6.596;2022-11-23T00:42:10;24.00;;;16.50;;
52858;SDS011;38721;53.098;6.596;2022-11-23T00:44:36;25.77;;;16.48;;
52858;SDS011;38721;53.098;6.596;2022-11-23T00:47:05;25.13;;;16.02;;
52858;SDS011;38721;53.098;6.596;2022-11-23T00:49:30;25.33;;;16.02;;
52858;SDS011;38721;53.098;6.596;2022-11-23T00:51:56;29.08;;;16.73;;
52858;SDS011;38721;53.098;6.596;2022-11-23T00:54:22;24.50;;;15.93;;
52858;SDS011;38721;53.098;6.596;2022-11-23T00:56:47;24.83;;;15.55;;
52858;SDS011;38721;53.098;6.596;2022-11-23T00:59:13;23.88;;;15.27;;
52858;SDS011;38721;53.098;6.596;2022-11-23T01:01:38;25.40;;;15.18;;
52858;SDS011;38721;53.098;6.596;2022-11-23T01:04:08;26.75;;;16.35;;
52858;SDS011;38721;53.098;6.596;2022-11-23T01:06:35;26.33;;;15.48;;
52858;SDS011;38721;53.098;6.596;2022-11-23T01:09:07;25.27;;;15.70;;
52858;SDS011;38721;53.098;6.596;2022-11-23T01:11:38;25.55;;;15.85;;
52858;SDS011;38721;53.098;6.596;2022-11-23T01:14:03;25.63;;;15.30;;
52858;SDS011;38721;53.098;6.596;2022-11-23T01:16:31;26.58;;;15.25;;
52858;SDS011;38721;53.098;6.596;2022-11-23T01:18:59;22.88;;;14.68;;
52858;SDS011;38721;53.098;6.596;2022-11-23T01:21:30;26.25;;;15.77;;
52858;SDS011;38721;53.098;6.596;2022-11-23T01:23:57;25.30;;;15.48;;
52858;SDS011;38721;53.098;6.596;2022-11-23T01:26:23;23.55;;;15.18;;
52858;SDS011;38721;53.098;6.596;2022-11-23T01:28:49;23.92;;;15.32;;
52858;SDS011;38721;53.098;6.596;2022-11-23T01:31:25;24.35;;;15.38;;
52858;SDS011;38721;53.098;6.596;2022-11-23T01:33:51;24.35;;;15.52;;
52858;SDS011;38721;53.098;6.596;2022-11-23T01:36:25;23.83;;;15.43;;
52858;SDS011;38721;53.098;6.596;2022-11-23T01:38:52;23.52;;;15.93;;
52858;SDS011;38721;53.098;6.596;2022-11-23T01:41:20;21.30;;;15.20;;
52858;SDS011;38721;53.098;6.596;2022-11-23T01:43:47;24.55;;;15.00;;
52858;SDS011;38721;53.098;6.596;2022-11-23T01:46:13;25.40;;;14.90;;
52858;SDS011;38721;53.098;6.596;2022-11-23T01:48:50;23.92;;;15.23;;
52858;SDS011;38721;53.098;6.596;2022-11-23T01:51:31;24.48;;;14.90;;
52858;SDS011;38721;53.098;6.596;2022-11-23T01:54:06;29.67;;;15.27;;
52858;SDS011;38721;53.098;6.596;2022-11-23T01:56:46;22.35;;;15.75;;
52858;SDS011;38721;53.098;6.596;2022-11-23T01:59:15;24.17;;;15.68;;
52858;SDS011;38721;53.098;6.596;2022-11-23T02:01:43;25.95;;;16.38;;
52858;SDS011;38721;53.098;6.596;2022-11-23T02:04:10;24.30;;;15.82;;
52858;SDS011;38721;53.098;6.596;2022-11-23T02:06:40;28.15;;;16.25;;
52858;SDS011;38721;53.098;6.596;2022-11-23T02:09:12;27.52;;;16.45;;
52858;SDS011;38721;53.098;6.596;2022-11-23T02:11:40;24.95;;;16.70;;
52858;SDS011;38721;53.098;6.596;2022-11-23T02:14:05;27.40;;;17.05;;
52858;SDS011;38721;53.098;6.596;2022-11-23T02:16:31;27.30;;;16.33;;
52858;SDS011;38721;53.098;6.596;2022-11-23T02:18:57;27.10;;;16.23;;
52858;SDS011;38721;53.098;6.596;2022-11-23T02:21:23;24.52;;;15.45;;
52858;SDS011;38721;53.098;6.596;2022-11-23T02:24:06;24.00;;;16.55;;
52858;SDS011;38721;53.098;6.596;2022-11-23T02:26:38;25.48;;;16.50;;
52858;SDS011;38721;53.098;6.596;2022-11-23T02:29:06;24.50;;;16.13;;
52858;SDS011;38721;53.098;6.596;2022-11-23T02:31:45;26.75;;;16.13;;
52858;SDS011;38721;53.098;6.596;2022-11-23T02:34:11;27.63;;;16.70;;
52858;SDS011;38721;53.098;6.596;2022-11-23T02:36:53;28.13;;;16.02;;
52858;SDS011;38721;53.098;6.596;2022-11-23T02:42:15;29.90;;;16.65;;
52858;SDS011;38721;53.098;6.596;2022-11-23T02:44:47;27.58;;;17.45;;
52858;SDS011;38721;53.098;6.596;2022-11-23T02:47:19;25.38;;;16.15;;
52858;SDS011;38721;53.098;6.596;2022-11-23T02:49:46;27.35;;;16.00;;
52858;SDS011;38721;53.098;6.596;2022-11-23T02:52:13;29.98;;;16.15;;
52858;SDS011;38721;53.098;6.596;2022-11-23T02:54:42;27.27;;;17.45;;
52858;SDS011;38721;53.098;6.596;2022-11-23T02:57:08;25.38;;;15.70;;
52858;SDS011;38721;53.098;6.596;2022-11-23T02:59:34;24.15;;;14.85;;
52858;SDS011;38721;53.098;6.596;2022-11-23T03:02:00;24.52;;;15.63;;
52858;SDS011;38721;53.098;6.596;2022-11-23T03:04:27;22.38;;;14.70;;
52858;SDS011;38721;53.098;6.596;2022-11-23T03:06:52;24.55;;;15.80;;
52858;SDS011;38721;53.098;6.596;2022-11-23T03:09:18;22.27;;;14.65;;
52858;SDS011;38721;53.098;6.596;2022-11-23T03:11:44;25.95;;;14.63;;
52858;SDS011;38721;53.098;6.596;2022-11-23T03:14:09;23.08;;;13.85;;
52858;SDS011;38721;53.098;6.596;2022-11-23T03:16:36;23.80;;;14.50;;
52858;SDS011;38721;53.098;6.596;2022-11-23T03:19:02;20.45;;;14.55;;
52858;SDS011;38721;53.098;6.596;2022-11-23T03:21:27;20.42;;;14.55;;
52858;SDS011;38721;53.098;6.596;2022-11-23T03:23:53;25.38;;;14.90;;
52858;SDS011;38721;53.098;6.596;2022-11-23T03:26:19;26.27;;;15.32;;
52858;SDS011;38721;53.098;6.596;2022-11-23T03:28:45;24.85;;;15.93;;
52858;SDS011;38721;53.098;6.596;2022-11-23T03:31:11;22.30;;;14.02;;
52858;SDS011;38721;53.098;6.596;2022-11-23T03:33:36;25.33;;;15.13;;
52858;SDS011;38721;53.098;6.596;2022-11-23T03:36:02;24.73;;;15.65;;
52858;SDS011;38721;53.098;6.596;2022-11-23T03:38:28;27.92;;;15.45;;
52858;SDS011;38721;53.098;6.596;2022-11-23T03:40:57;25.88;;;15.10;;
52858;SDS011;38721;53.098;6.596;2022-11-23T03:43:22;25.52;;;15.10;;
52858;SDS011;38721;53.098;6.596;2022-11-23T03:45:48;28.40;;;15.95;;
52858;SDS011;38721;53.098;6.596;2022-11-23T03:48:14;26.05;;;15.95;;
52858;SDS011;38721;53.098;6.596;2022-11-23T03:50:40;26.90;;;16.27;;
52858;SDS011;38721;53.098;6.596;2022-11-23T03:53:06;32.90;;;16.92;;
52858;SDS011;38721;53.098;6.596;2022-11-23T03:55:32;31.40;;;16.23;;
52858;SDS011;38721;53.098;6.596;2022-11-23T03:57:58;29.67;;;16.90;;
52858;SDS011;38721;53.098;6.596;2022-11-23T04:00:25;28.92;;;16.77;;
52858;SDS011;38721;53.098;6.596;2022-11-23T04:02:51;31.13;;;16.92;;
52858;SDS011;38721;53.098;6.596;2022-11-23T04:05:17;34.20;;;17.42;;
52858;SDS011;38721;53.098;6.596;2022-11-23T04:07:42;35.97;;;17.75;;
52858;SDS011;38721;53.098;6.596;2022-11-23T04:10:11;33.05;;;17.25;;
52858;SDS011;38721;53.098;6.596;2022-11-23T04:12:41;37.05;;;18.13;;
52858;SDS011;38721;53.098;6.596;2022-11-23T04:15:07;35.33;;;18.52;;
52858;SDS011;38721;53.098;6.596;2022-11-23T04:17:33;32.03;;;17.35;;
52858;SDS011;38721;53.098;6.596;2022-11-23T04:19:58;37.75;;;19.02;;
52858;SDS011;38721;53.098;6.596;2022-11-23T04:22:24;32.90;;;18.45;;
52858;SDS011;38721;53.098;6.596;2022-11-23T04:24:49;38.97;;;20.05;;
52858;SDS011;38721;53.098;6.596;2022-11-23T04:27:15;35.08;;;19.05;;
52858;SDS011;38721;53.098;6.596;2022-11-23T04:29:44;39.08;;;19.67;;
52858;SDS011;38721;53.098;6.596;2022-11-23T04:32:09;36.25;;;19.75;;
52858;SDS011;38721;53.098;6.596;2022-11-23T04:34:35;39.13;;;20.42;;
52858;SDS011;38721;53.098;6.596;2022-11-23T04:37:01;33.92;;;19.65;;
52858;SDS011;38721;53.098;6.596;2022-11-23T04:39:27;38.10;;;19.58;;
52858;SDS011;38721;53.098;6.596;2022-11-23T04:41:52;34.28;;;19.63;;
52858;SDS011;38721;53.098;6.596;2022-11-23T04:44:18;38.13;;;19.95;;
52858;SDS011;38721;53.098;6.596;2022-11-23T04:46:48;40.88;;;20.90;;
52858;SDS011;38721;53.098;6.596;2022-11-23T04:49:14;36.45;;;20.10;;
52858;SDS011;38721;53.098;6.596;2022-11-23T04:51:40;38.95;;;21.05;;
52858;SDS011;38721;53.098;6.596;2022-11-23T04:54:06;41.05;;;20.95;;
52858;SDS011;38721;53.098;6.596;2022-11-23T04:56:31;40.58;;;21.02;;
52858;SDS011;38721;53.098;6.596;2022-11-23T04:58:57;40.63;;;21.52;;
52858;SDS011;38721;53.098;6.596;2022-11-23T05:01:23;43.00;;;22.98;;
52858;SDS011;38721;53.098;6.596;2022-11-23T05:03:51;43.65;;;21.70;;
52858;SDS011;38721;53.098;6.596;2022-11-23T05:06:17;42.88;;;22.35;;
52858;SDS011;38721;53.098;6.596;2022-11-23T05:08:43;47.20;;;22.90;;
52858;SDS011;38721;53.098;6.596;2022-11-23T05:11:08;49.25;;;22.23;;
52858;SDS011;38721;53.098;6.596;2022-11-23T05:13:34;42.25;;;21.95;;
52858;SDS011;38721;53.098;6.596;2022-11-23T05:15:59;40.03;;;21.35;;
52858;SDS011;38721;53.098;6.596;2022-11-23T05:18:25;38.08;;;21.83;;
52858;SDS011;38721;53.098;6.596;2022-11-23T05:20:51;45.15;;;22.33;;
52858;SDS011;38721;53.098;6.596;2022-11-23T05:23:16;44.50;;;22.40;;
52858;SDS011;38721;53.098;6.596;2022-11-23T05:25:45;41.38;;;21.25;;
52858;SDS011;38721;53.098;6.596;2022-11-23T05:28:15;39.38;;;21.75;;
52858;SDS011;38721;53.098;6.596;2022-11-23T05:30:42;40.50;;;22.30;;
52858;SDS011;38721;53.098;6.596;2022-11-23T05:33:08;41.13;;;23.02;;
52858;SDS011;38721;53.098;6.596;2022-11-23T05:35:37;40.45;;;23.13;;
52858;SDS011;38721;53.098;6.596;2022-11-23T05:38:07;42.65;;;22.02;;
52858;SDS011;38721;53.098;6.596;2022-11-23T05:40:32;40.03;;;23.33;;
52858;SDS011;38721;53.098;6.596;2022-11-23T05:42:58;40.22;;;21.92;;
52858;SDS011;38721;53.098;6.596;2022-11-23T05:45:24;38.65;;;21.98;;
52858;SDS011;38721;53.098;6.596;2022-11-23T05:47:57;35.28;;;22.83;;
52858;SDS011;38721;53.098;6.596;2022-11-23T05:50:24;44.13;;;22.00;;
52858;SDS011;38721;53.098;6.596;2022-11-23T05:52:51;36.45;;;20.45;;
52858;SDS011;38721;53.098;6.596;2022-11-23T05:55:16;38.22;;;21.35;;
52858;SDS011;38721;53.098;6.596;2022-11-23T05:57:45;38.72;;;21.65;;
52858;SDS011;38721;53.098;6.596;2022-11-23T06:00:11;34.38;;;19.13;;
52858;SDS011;38721;53.098;6.596;2022-11-23T06:02:37;35.33;;;20.38;;
52858;SDS011;38721;53.098;6.596;2022-11-23T06:05:03;38.08;;;19.73;;
52858;SDS011;38721;53.098;6.596;2022-11-23T06:07:32;35.80;;;18.83;;
52858;SDS011;38721;53.098;6.596;2022-11-23T06:10:02;33.50;;;18.70;;
52858;SDS011;38721;53.098;6.596;2022-11-23T06:12:29;31.23;;;18.15;;
52858;SDS011;38721;53.098;6.596;2022-11-23T06:14:55;35.60;;;18.10;;
52858;SDS011;38721;53.098;6.596;2022-11-23T06:17:21;32.25;;;17.70;;
52858;SDS011;38721;53.098;6.596;2022-11-23T06:19:46;28.63;;;17.13;;
52858;SDS011;38721;53.098;6.596;2022-11-23T06:22:12;31.98;;;18.15;;
52858;SDS011;38721;53.098;6.596;2022-11-23T06:24:41;26.90;;;14.10;;
52858;SDS011;38721;53.098;6.596;2022-11-23T06:27:07;27.38;;;14.05;;
52858;SDS011;38721;53.098;6.596;2022-11-23T06:29:33;25.67;;;14.70;;
52858;SDS011;38721;53.098;6.596;2022-11-23T06:31:59;30.88;;;14.18;;
52858;SDS011;38721;53.098;6.596;2022-11-23T06:34:25;25.92;;;14.85;;
52858;SDS011;38721;53.098;6.596;2022-11-23T06:36:50;25.08;;;14.07;;
52858;SDS011;38721;53.098;6.596;2022-11-23T06:39:16;28.15;;;14.82;;
52858;SDS011;38721;53.098;6.596;2022-11-23T06:41:46;27.08;;;15.32;;
52858;SDS011;38721;53.098;6.596;2022-11-23T06:44:12;24.73;;;13.65;;
52858;SDS011;38721;53.098;6.596;2022-11-23T06:46:38;25.42;;;13.00;;
52858;SDS011;38721;53.098;6.596;2022-11-23T06:49:03;27.60;;;12.60;;
52858;SDS011;38721;53.098;6.596;2022-11-23T06:51:29;23.20;;;11.90;;
52858;SDS011;38721;53.098;6.596;2022-11-23T06:53:55;27.88;;;11.48;;
52858;SDS011;38721;53.098;6.596;2022-11-23T06:56:24;23.98;;;11.30;;
52858;SDS011;38721;53.098;6.596;2022-11-23T06:58:49;23.15;;;12.40;;
52858;SDS011;38721;53.098;6.596;2022-11-23T07:01:15;24.15;;;11.15;;
52858;SDS011;38721;53.098;6.596;2022-11-23T07:03:40;20.20;;;10.48;;
52858;SDS011;38721;53.098;6.596;2022-11-23T07:06:07;19.95;;;10.20;;
52858;SDS011;38721;53.098;6.596;2022-11-23T07:08:35;18.05;;;10.50;;
52858;SDS011;38721;53.098;6.596;2022-11-23T07:11:04;25.33;;;11.68;;
52858;SDS011;38721;53.098;6.596;2022-11-23T07:13:31;18.88;;;10.95;;
52858;SDS011;38721;53.098;6.596;2022-11-23T07:15:57;19.55;;;10.38;;
52858;SDS011;38721;53.098;6.596;2022-11-23T07:18:23;20.55;;;10.38;;
52858;SDS011;38721;53.098;6.596;2022-11-23T07:20:49;20.13;;;10.10;;
52858;SDS011;38721;53.098;6.596;2022-11-23T07:23:15;16.38;;;9.73;;
52858;SDS011;38721;53.098;6.596;2022-11-23T07:25:41;20.00;;;9.02;;
52858;SDS011;38721;53.098;6.596;2022-11-23T07:28:10;16.70;;;8.68;;
52858;SDS011;38721;53.098;6.596;2022-11-23T07:30:37;18.90;;;9.48;;
52858;SDS011;38721;53.098;6.596;2022-11-23T07:33:03;19.70;;;9.35;;
52858;SDS011;38721;53.098;6.596;2022-11-23T07:35:32;15.75;;;8.77;;
52858;SDS011;38721;53.098;6.596;2022-11-23T07:38:00;16.63;;;8.57;;
52858;SDS011;38721;53.098;6.596;2022-11-23T07:40:25;21.58;;;8.75;;
52858;SDS011;38721;53.098;6.596;2022-11-23T07:42:51;17.90;;;8.82;;
52858;SDS011;38721;53.098;6.596;2022-11-23T07:45:17;16.60;;;8.05;;
52858;SDS011;38721;53.098;6.596;2022-11-23T07:47:42;16.17;;;8.52;;
52858;SDS011;38721;53.098;6.596;2022-11-23T07:50:10;18.55;;;8.70;;
52858;SDS011;38721;53.098;6.596;2022-11-23T07:52:37;16.52;;;7.75;;
52858;SDS011;38721;53.098;6.596;2022-11-23T07:55:04;19.27;;;8.18;;
52858;SDS011;38721;53.098;6.596;2022-11-23T07:57:30;19.20;;;8.15;;
52858;SDS011;38721;53.098;6.596;2022-11-23T07:59:56;17.63;;;7.63;;
52858;SDS011;38721;53.098;6.596;2022-11-23T08:02:21;19.95;;;8.55;;
52858;SDS011;38721;53.098;6.596;2022-11-23T08:04:47;16.08;;;7.28;;
52858;SDS011;38721;53.098;6.596;2022-11-23T08:07:13;14.05;;;7.57;;
52858;SDS011;38721;53.098;6.596;2022-11-23T08:09:39;18.65;;;7.53;;
52858;SDS011;38721;53.098;6.596;2022-11-23T08:12:04;15.20;;;6.85;;
52858;SDS011;38721;53.098;6.596;2022-11-23T08:14:33;18.02;;;7.55;;
52858;SDS011;38721;53.098;6.596;2022-11-23T08:16:59;17.73;;;7.28;;
52858;SDS011;38721;53.098;6.596;2022-11-23T08:19:24;18.95;;;7.38;;
52858;SDS011;38721;53.098;6.596;2022-11-23T08:21:50;15.90;;;7.05;;
52858;SDS011;38721;53.098;6.596;2022-11-23T08:24:15;12.98;;;6.50;;
52858;SDS011;38721;53.098;6.596;2022-11-23T08:26:41;15.02;;;6.57;;
52858;SDS011;38721;53.098;6.596;2022-11-23T08:29:07;17.48;;;7.85;;
52858;SDS011;38721;53.098;6.596;2022-11-23T08:31:32;13.10;;;6.60;;
52858;SDS011;38721;53.098;6.596;2022-11-23T08:34:01;16.58;;;6.53;;
52858;SDS011;38721;53.098;6.596;2022-11-23T08:36:27;13.20;;;6.45;;
52858;SDS011;38721;53.098;6.596;2022-11-23T08:38:52;16.25;;;6.32;;
52858;SDS011;38721;53.098;6.596;2022-11-23T08:41:18;17.30;;;7.07;;
52858;SDS011;38721;53.098;6.596;2022-11-23T08:43:48;15.90;;;6.47;;
52858;SDS011;38721;53.098;6.596;2022-11-23T08:46:14;12.32;;;5.65;;
52858;SDS011;38721;53.098;6.596;2022-11-23T08:48:41;13.73;;;6.20;;
52858;SDS011;38721;53.098;6.596;2022-11-23T08:51:07;15.13;;;6.20;;
52858;SDS011;38721;53.098;6.596;2022-11-23T08:53:33;18.35;;;6.35;;
52858;SDS011;38721;53.098;6.596;2022-11-23T08:56:05;13.00;;;5.93;;
52858;SDS011;38721;53.098;6.596;2022-11-23T08:58:31;17.23;;;6.25;;
52858;SDS011;38721;53.098;6.596;2022-11-23T09:00:57;14.98;;;6.07;;
52858;SDS011;38721;53.098;6.596;2022-11-23T09:03:23;15.13;;;6.38;;
52858;SDS011;38721;53.098;6.596;2022-11-23T09:05:48;15.85;;;5.85;;
52858;SDS011;38721;53.098;6.596;2022-11-23T09:08:15;11.88;;;6.03;;
52858;SDS011;38721;53.098;6.596;2022-11-23T09:10:41;15.68;;;5.95;;
52858;SDS011;38721;53.098;6.596;2022-11-23T09:13:07;19.60;;;6.20;;
52858;SDS011;38721;53.098;6.596;2022-11-23T09:15:33;20.75;;;5.97;;
52858;SDS011;38721;53.098;6.596;2022-11-23T09:18:01;14.65;;;6.18;;
52858;SDS011;38721;53.098;6.596;2022-11-23T09:20:27;15.18;;;6.30;;
52858;SDS011;38721;53.098;6.596;2022-11-23T09:22:53;12.07;;;5.93;;
52858;SDS011;38721;53.098;6.596;2022-11-23T09:25:20;17.95;;;5.85;;
52858;SDS011;38721;53.098;6.596;2022-11-23T09:27:47;13.35;;;5.82;;
52858;SDS011;38721;53.098;6.596;2022-11-23T09:30:15;16.80;;;6.22;;
52858;SDS011;38721;53.098;6.596;2022-11-23T09:32:41;9.90;;;5.13;;
52858;SDS011;38721;53.098;6.596;2022-11-23T09:35:07;13.32;;;5.80;;
52858;SDS011;38721;53.098;6.596;2022-11-23T09:37:33;14.00;;;5.57;;
52858;SDS011;38721;53.098;6.596;2022-11-23T09:39:58;11.75;;;5.40;;
52858;SDS011;38721;53.098;6.596;2022-11-23T09:48:05;12.10;;;5.30;;
52858;SDS011;38721;53.098;6.596;2022-11-23T09:50:48;12.20;;;5.20;;
52858;SDS011;38721;53.098;6.596;2022-11-23T09:53:21;14.15;;;4.85;;
52858;SDS011;38721;53.098;6.596;2022-11-23T09:56:07;15.48;;;5.45;;
52858;SDS011;38721;53.098;6.596;2022-11-23T09:58:41;15.15;;;5.53;;
52858;SDS011;38721;53.098;6.596;2022-11-23T10:01:10;15.95;;;5.10;;
52858;SDS011;38721;53.098;6.596;2022-11-23T10:03:39;15.68;;;5.10;;
52858;SDS011;38721;53.098;6.596;2022-11-23T10:08:52;12.07;;;4.75;;
52858;SDS011;38721;53.098;6.596;2022-11-23T10:19:59;11.48;;;4.20;;
52858;SDS011;38721;53.098;6.596;2022-11-23T10:22:35;14.73;;;5.30;;
52858;SDS011;38721;53.098;6.596;2022-11-23T10:25:23;9.25;;;4.25;;
52858;SDS011;38721;53.098;6.596;2022-11-23T10:27:50;17.15;;;4.45;;
52858;SDS011;38721;53.098;6.596;2022-11-23T10:30:20;12.55;;;4.10;;
52858;SDS011;38721;53.098;6.596;2022-11-23T10:32:51;14.13;;;3.85;;
52858;SDS011;38721;53.098;6.596;2022-11-23T10:35:28;9.98;;;4.13;;
52858;SDS011;38721;53.098;6.596;2022-11-23T10:40:44;12.00;;;3.95;;
52858;SDS011;38721;53.098;6.596;2022-11-23T10:43:23;13.57;;;4.05;;
52858;SDS011;38721;53.098;6.596;2022-11-23T10:45:56;14.30;;;3.90;;
52858;SDS011;38721;53.098;6.596;2022-11-23T10:49:16;14.13;;;4.13;;
52858;SDS011;38721;53.098;6.596;2022-11-23T10:51:51;10.98;;;4.07;;
52858;SDS011;38721;53.098;6.596;2022-11-23T10:54:22;12.05;;;3.88;;
52858;SDS011;38721;53.098;6.596;2022-11-23T10:56:55;13.95;;;4.53;;
52858;SDS011;38721;53.098;6.596;2022-11-23T11:04:39;11.45;;;3.30;;
52858;SDS011;38721;53.098;6.596;2022-11-23T11:07:17;9.45;;;3.38;;
52858;SDS011;38721;53.098;6.596;2022-11-23T11:09:53;12.77;;;3.50;;
52858;SDS011;38721;53.098;6.596;2022-11-23T11:12:20;11.40;;;3.40;;
52858;SDS011;38721;53.098;6.596;2022-11-23T11:15:22;7.68;;;3.20;;
52858;SDS011;38721;53.098;6.596;2022-11-23T11:17:44;12.63;;;3.40;;
52858;SDS011;38721;53.098;6.596;2022-11-23T11:22:52;12.70;;;3.42;;
52858;SDS011;38721;53.098;6.596;2022-11-23T11:25:35;10.90;;;3.53;;
52858;SDS011;38721;53.098;6.596;2022-11-23T11:28:03;13.32;;;3.97;;
52858;SDS011;38721;53.098;6.596;2022-11-23T11:30:45;12.63;;;3.58;;
52858;SDS011;38721;53.098;6.596;2022-11-23T11:33:21;12.43;;;3.58;;
52858;SDS011;38721;53.098;6.596;2022-11-23T11:35:57;14.43;;;3.63;;
52858;SDS011;38721;53.098;6.596;2022-11-23T11:38:26;12.48;;;3.33;;
52858;SDS011;38721;53.098;6.596;2022-11-23T11:40:57;13.65;;;3.08;;
52858;SDS011;38721;53.098;6.596;2022-11-23T11:43:36;10.25;;;3.10;;
52858;SDS011;38721;53.098;6.596;2022-11-23T11:46:11;8.75;;;3.10;;
52858;SDS011;38721;53.098;6.596;2022-11-23T11:48:45;10.40;;;3.03;;
52858;SDS011;38721;53.098;6.596;2022-11-23T11:51:29;10.93;;;3.20;;
52858;SDS011;38721;53.098;6.596;2022-11-23T11:56:43;11.15;;;3.40;;
52858;SDS011;38721;53.098;6.596;2022-11-23T12:01:55;13.35;;;2.95;;
52858;SDS011;38721;53.098;6.596;2022-11-23T12:07:07;11.68;;;3.05;;
52858;SDS011;38721;53.098;6.596;2022-11-23T12:09:41;13.88;;;3.63;;
52858;SDS011;38721;53.098;6.596;2022-11-23T12:12:11;12.55;;;3.30;;
52858;SDS011;38721;53.098;6.596;2022-11-23T12:14:40;9.65;;;2.60;;
52858;SDS011;38721;53.098;6.596;2022-11-23T12:20:12;8.38;;;2.35;;
52858;SDS011;38721;53.098;6.596;2022-11-23T12:25:33;9.90;;;2.78;;
52858;SDS011;38721;53.098;6.596;2022-11-23T12:33:39;10.77;;;3.20;;
52858;SDS011;38721;53.098;6.596;2022-11-23T12:47:01;8.32;;;2.28;;
52858;SDS011;38721;53.098;6.596;2022-11-23T12:49:50;8.15;;;2.03;;
52858;SDS011;38721;53.098;6.596;2022-11-23T12:57:43;9.02;;;2.75;;
52858;SDS011;38721;53.098;6.596;2022-11-23T13:00:19;8.52;;;2.25;;
52858;SDS011;38721;53.098;6.596;2022-11-23T13:16:39;6.78;;;2.00;;
52858;SDS011;38721;53.098;6.596;2022-11-23T13:21:56;8.27;;;2.28;;
52858;SDS011;38721;53.098;6.596;2022-11-23T13:24:27;9.98;;;2.28;;
52858;SDS011;38721;53.098;6.596;2022-11-23T13:32:54;9.75;;;2.17;;
52858;SDS011;38721;53.098;6.596;2022-11-23T13:35:47;10.15;;;2.25;;
52858;SDS011;38721;53.098;6.596;2022-11-23T13:38:17;6.95;;;1.95;;
52858;SDS011;38721;53.098;6.596;2022-11-23T13:40:47;7.30;;;1.98;;
52858;SDS011;38721;53.098;6.596;2022-11-23T13:48:44;6.00;;;1.80;;
52858;SDS011;38721;53.098;6.596;2022-11-23T13:51:11;9.20;;;2.20;;
52858;SDS011;38721;53.098;6.596;2022-11-23T13:53:49;6.77;;;2.20;;
52858;SDS011;38721;53.098;6.596;2022-11-23T14:04:32;9.35;;;1.90;;
52858;SDS011;38721;53.098;6.596;2022-11-23T14:07:11;8.60;;;1.85;;
52858;SDS011;38721;53.098;6.596;2022-11-23T14:09:44;8.18;;;1.95;;
52858;SDS011;38721;53.098;6.596;2022-11-23T14:12:16;10.52;;;1.90;;
52858;SDS011;38721;53.098;6.596;2022-11-23T14:15:20;8.60;;;2.13;;
52858;SDS011;38721;53.098;6.596;2022-11-23T14:40:04;7.55;;;2.50;;
52858;SDS011;38721;53.098;6.596;2022-11-23T14:42:43;8.63;;;2.25;;
52858;SDS011;38721;53.098;6.596;2022-11-23T14:45:15;6.82;;;1.98;;
52858;SDS011;38721;53.098;6.596;2022-11-23T14:47:43;7.93;;;1.80;;
52858;SDS011;38721;53.098;6.596;2022-11-23T14:50:25;9.63;;;2.00;;
52858;SDS011;38721;53.098;6.596;2022-11-23T14:52:53;6.20;;;1.50;;
52858;SDS011;38721;53.098;6.596;2022-11-23T14:55:25;5.43;;;1.85;;
52858;SDS011;38721;53.098;6.596;2022-11-23T14:58:02;10.95;;;2.53;;
52858;SDS011;38721;53.098;6.596;2022-11-23T15:00:40;6.45;;;1.50;;
52858;SDS011;38721;53.098;6.596;2022-11-23T15:03:08;5.03;;;1.90;;
52858;SDS011;38721;53.098;6.596;2022-11-23T15:05:39;5.55;;;1.80;;
52858;SDS011;38721;53.098;6.596;2022-11-23T15:11:09;9.52;;;2.55;;
52858;SDS011;38721;53.098;6.596;2022-11-23T15:13:47;7.25;;;1.88;;
52858;SDS011;38721;53.098;6.596;2022-11-23T15:16:15;9.20;;;2.65;;
52858;SDS011;38721;53.098;6.596;2022-11-23T15:18:45;8.32;;;2.08;;
52858;SDS011;38721;53.098;6.596;2022-11-23T15:23:48;7.65;;;1.90;;
52858;SDS011;38721;53.098;6.596;2022-11-23T15:26:19;7.55;;;1.95;;
52858;SDS011;38721;53.098;6.596;2022-11-23T15:28:47;10.85;;;2.58;;
52858;SDS011;38721;53.098;6.596;2022-11-23T15:31:33;9.20;;;2.00;;
52858;SDS011;38721;53.098;6.596;2022-11-23T15:34:04;4.68;;;1.80;;
52858;SDS011;38721;53.098;6.596;2022-11-23T15:39:04;7.78;;;2.00;;
52858;SDS011;38721;53.098;6.596;2022-11-23T15:41:32;5.00;;;1.67;;
52858;SDS011;38721;53.098;6.596;2022-11-23T15:44:00;8.13;;;2.13;;
52858;SDS011;38721;53.098;6.596;2022-11-23T15:46:38;10.77;;;2.20;;
52858;SDS011;38721;53.098;6.596;2022-11-23T15:49:05;6.13;;;1.95;;
52858;SDS011;38721;53.098;6.596;2022-11-23T15:51:38;6.55;;;2.10;;
52858;SDS011;38721;53.098;6.596;2022-11-23T15:54:10;6.93;;;1.77;;
52858;SDS011;38721;53.098;6.596;2022-11-23T15:56:42;8.40;;;1.92;;
52858;SDS011;38721;53.098;6.596;2022-11-23T16:01:57;4.70;;;2.70;;
52858;SDS011;38721;53.098;6.596;2022-11-23T16:04:28;7.50;;;2.00;;
52858;SDS011;38721;53.098;6.596;2022-11-23T16:12:31;8.57;;;2.70;;
52858;SDS011;38721;53.098;6.596;2022-11-23T16:15:43;5.85;;;2.10;;
52858;SDS011;38721;53.098;6.596;2022-11-23T16:17:54;6.35;;;2.30;;
52858;SDS011;38721;53.098;6.596;2022-11-23T16:20:21;6.75;;;2.50;;
52858;SDS011;38721;53.098;6.596;2022-11-23T16:22:48;8.98;;;2.78;;
52858;SDS011;38721;53.098;6.596;2022-11-23T16:30:34;6.38;;;2.33;;
52858;SDS011;38721;53.098;6.596;2022-11-23T16:33:05;5.55;;;2.63;;
52858;SDS011;38721;53.098;6.596;2022-11-23T16:35:37;8.05;;;3.00;;
52858;SDS011;38721;53.098;6.596;2022-11-23T16:38:02;8.75;;;3.08;;
52858;SDS011;38721;53.098;6.596;2022-11-23T16:40:30;9.20;;;2.90;;
52858;SDS011;38721;53.098;6.596;2022-11-23T16:42:56;7.65;;;2.50;;
52858;SDS011;38721;53.098;6.596;2022-11-23T16:45:21;8.75;;;2.72;;
52858;SDS011;38721;53.098;6.596;2022-11-23T16:47:52;6.35;;;2.45;;
52858;SDS011;38721;53.098;6.596;2022-11-23T16:50:28;10.88;;;2.90;;
52858;SDS011;38721;53.098;6.596;2022-11-23T16:53:16;7.65;;;2.83;;
52858;SDS011;38721;53.098;6.596;2022-11-23T16:55:44;8.15;;;2.40;;
52858;SDS011;38721;53.098;6.596;2022-11-23T16:58:19;9.38;;;3.20;;
52858;SDS011;38721;53.098;6.596;2022-11-23T17:00:46;10.23;;;3.28;;
52858;SDS011;38721;53.098;6.596;2022-11-23T17:03:15;6.70;;;2.55;;
52858;SDS011;38721;53.098;6.596;2022-11-23T17:05:45;10.30;;;2.83;;
52858;SDS011;38721;53.098;6.596;2022-11-23T17:08:11;8.05;;;2.20;;